Time;durP1;ratioP1;P1;durP2;ratioP2;P2;SDS_P1;SDS_P2;PMS_P1;PMS_P2;Temp;Humidity;BMP_temperature;BMP_pressure;BME280_temperature;BME280_humidity;BME280_pressure;Samples;Min_cycle;Max_cycle;Signal;HPM_P1;HPM_P2
2023/06/11 00:00:51;;;;;;;9.40;8.10;;;;;;;;;;5003185;28;20865;-50
2023/06/11 00:03:21;;;;;;;12.07;9.10;;;;;;;;;;4998782;28;20770;-51
2023/06/11 00:05:47;;;;;;;9.03;7.80;;;;;;;;;;5002551;28;20557;-49
2023/06/11 00:08:13;;;;;;;11.77;8.23;;;;;;;;;;5003283;28;20541;-49
2023/06/11 00:10:40;;;;;;;9.77;8.90;;;;;;;;;;5000139;28;20900;-49
2023/06/11 00:13:06;;;;;;;9.37;8.50;;;;;;;;;;4999468;28;20442;-50
2023/06/11 00:15:31;;;;;;;9.60;8.80;;;;;;;;;;5000127;28;20509;-50
2023/06/11 00:17:57;;;;;;;9.30;8.43;;;;;;;;;;5001606;28;20481;-49
2023/06/11 00:20:23;;;;;;;11.17;9.10;;;;;;;;;;4997952;28;20462;-50
2023/06/11 00:22:49;;;;;;;9.47;8.47;;;;;;;;;;5002069;28;20503;-50
2023/06/11 00:25:15;;;;;;;9.27;8.47;;;;;;;;;;5001802;28;20478;-50
2023/06/11 00:27:41;;;;;;;9.30;8.57;;;;;;;;;;4998676;28;20447;-51
2023/06/11 00:30:07;;;;;;;13.87;9.10;;;;;;;;;;5001313;28;20407;-50
2023/06/11 00:32:36;;;;;;;9.60;8.70;;;;;;;;;;5000021;28;20405;-51
2023/06/11 00:35:07;;;;;;;9.13;8.33;;;;;;;;;;5000305;28;20435;-51
2023/06/11 00:37:34;;;;;;;8.63;7.93;;;;;;;;;;5002252;28;20499;-51
2023/06/11 00:40:00;;;;;;;19.90;8.80;;;;;;;;;;5000344;28;20423;-51
2023/06/11 00:42:27;;;;;;;8.97;8.27;;;;;;;;;;5001938;28;20474;-49
2023/06/11 00:44:54;;;;;;;9.60;8.00;;;;;;;;;;5000564;28;20435;-51
2023/06/11 00:47:20;;;;;;;10.00;8.83;;;;;;;;;;5001567;28;20818;-49
2023/06/11 00:49:46;;;;;;;9.40;8.50;;;;;;;;;;5001796;28;20879;-49
2023/06/11 00:52:18;;;;;;;9.87;9.07;;;;;;;;;;5001918;28;20462;-49
2023/06/11 00:54:44;;;;;;;9.77;8.90;;;;;;;;;;4987847;28;20983;-50
2023/06/11 00:57:10;;;;;;;9.10;8.30;;;;;;;;;;4995925;28;20412;-51
2023/06/11 00:59:37;;;;;;;9.40;8.50;;;;;;;;;;5003000;28;20407;-50
2023/06/11 01:02:05;;;;;;;8.93;8.27;;;;;;;;;;5003020;28;20581;-51
2023/06/11 01:04:32;;;;;;;10.43;9.43;;;;;;;;;;5001744;28;20441;-50
2023/06/11 01:07:00;;;;;;;10.33;9.43;;;;;;;;;;5001772;28;20849;-51
2023/06/11 01:09:27;;;;;;;8.57;7.87;;;;;;;;;;5006529;28;20430;-50
2023/06/11 01:11:55;;;;;;;9.93;8.97;;;;;;;;;;5006451;28;20413;-50
2023/06/11 01:14:21;;;;;;;9.87;8.87;;;;;;;;;;5007253;28;20559;-50
2023/06/11 01:16:52;;;;;;;11.03;8.80;;;;;;;;;;5007976;28;20926;-51
2023/06/11 01:19:39;;;;;;;9.93;9.03;;;;;;;;;;5003436;28;20924;-48
2023/06/11 01:22:13;;;;;;;10.30;8.97;;;;;;;;;;4992338;28;20463;-50
2023/06/11 01:24:45;;;;;;;11.20;10.10;;;;;;;;;;5006454;28;20484;-49
2023/06/11 01:27:22;;;;;;;9.57;8.67;;;;;;;;;;4998569;28;20915;-49
2023/06/11 01:29:49;;;;;;;18.33;8.90;;;;;;;;;;5002941;28;20509;-50
2023/06/11 01:32:16;;;;;;;9.33;8.53;;;;;;;;;;5004824;28;20501;-51
2023/06/11 01:34:42;;;;;;;9.83;8.97;;;;;;;;;;5003145;28;20566;-51
2023/06/11 01:37:14;;;;;;;9.40;8.50;;;;;;;;;;5003004;28;20426;-50
2023/06/11 01:39:45;;;;;;;10.10;9.00;;;;;;;;;;5002707;28;20422;-49
2023/06/11 01:42:11;;;;;;;10.90;9.73;;;;;;;;;;5004421;28;20804;-50
2023/06/11 01:44:37;;;;;;;9.47;8.67;;;;;;;;;;5007289;28;20415;-50
2023/06/11 01:47:03;;;;;;;10.00;9.00;;;;;;;;;;5001195;28;20456;-50
2023/06/11 01:49:29;;;;;;;9.50;8.70;;;;;;;;;;5000629;28;20418;-49
2023/06/11 01:51:55;;;;;;;9.47;8.47;;;;;;;;;;5002597;28;20891;-49
2023/06/11 01:54:21;;;;;;;9.43;8.70;;;;;;;;;;5002628;28;21006;-51
2023/06/11 01:56:47;;;;;;;10.27;9.00;;;;;;;;;;5003504;28;20494;-49
2023/06/11 01:59:17;;;;;;;10.80;8.70;;;;;;;;;;5006004;28;20393;-50
2023/06/11 02:01:43;;;;;;;10.00;9.00;;;;;;;;;;5005578;28;20476;-50
2023/06/11 02:04:09;;;;;;;9.57;8.67;;;;;;;;;;5000015;28;20431;-50
2023/06/11 02:06:35;;;;;;;9.33;8.40;;;;;;;;;;4998258;28;20416;-51
2023/06/11 02:09:01;;;;;;;10.67;8.83;;;;;;;;;;5001589;28;20471;-50
2023/06/11 02:11:27;;;;;;;9.77;8.97;;;;;;;;;;5002235;28;20618;-50
2023/06/11 02:13:53;;;;;;;9.57;8.70;;;;;;;;;;5003164;28;20512;-50
2023/06/11 02:16:19;;;;;;;10.20;9.30;;;;;;;;;;5003380;28;20422;-51
2023/06/11 02:18:45;;;;;;;10.40;9.50;;;;;;;;;;5003693;28;20425;-50
2023/06/11 02:21:11;;;;;;;11.00;9.63;;;;;;;;;;4998212;28;20513;-49
2023/06/11 02:23:37;;;;;;;13.10;9.27;;;;;;;;;;5005196;28;20536;-50
2023/06/11 02:26:03;;;;;;;10.83;9.93;;;;;;;;;;5002132;28;20415;-50
2023/06/11 02:28:29;;;;;;;10.07;8.87;;;;;;;;;;5001923;28;20422;-50
2023/06/11 02:30:54;;;;;;;10.00;9.10;;;;;;;;;;5003389;28;20427;-51
2023/06/11 02:33:20;;;;;;;10.20;9.40;;;;;;;;;;5002041;28;20485;-49
2023/06/11 02:35:46;;;;;;;9.80;8.83;;;;;;;;;;5001818;28;20413;-50
2023/06/11 02:38:12;;;;;;;8.50;7.70;;;;;;;;;;5000352;28;20510;-50
2023/06/11 02:40:38;;;;;;;9.30;8.40;;;;;;;;;;5006060;28;20834;-49
2023/06/11 02:43:04;;;;;;;9.33;8.10;;;;;;;;;;5000320;28;20414;-51
2023/06/11 02:45:30;;;;;;;10.73;9.70;;;;;;;;;;4999732;28;20424;-49
2023/06/11 02:47:56;;;;;;;10.23;8.47;;;;;;;;;;5003071;28;20407;-50
2023/06/11 02:50:22;;;;;;;10.17;9.33;;;;;;;;;;5006986;28;20498;-51
2023/06/11 02:52:48;;;;;;;10.70;9.23;;;;;;;;;;5002672;28;20811;-50
2023/06/11 02:55:14;;;;;;;10.10;9.10;;;;;;;;;;5005079;28;20450;-50
2023/06/11 02:57:40;;;;;;;9.70;8.90;;;;;;;;;;5004811;28;20421;-50
2023/06/11 03:00:08;;;;;;;11.00;8.90;;;;;;;;;;4998331;28;20791;-49
2023/06/11 03:02:34;;;;;;;11.67;9.53;;;;;;;;;;4997485;28;20423;-51
2023/06/11 03:05:00;;;;;;;9.77;8.90;;;;;;;;;;5003954;28;20490;-49
2023/06/11 03:07:26;;;;;;;10.13;9.13;;;;;;;;;;5003387;28;20484;-49
2023/06/11 03:09:52;;;;;;;11.63;9.80;;;;;;;;;;5001450;28;21194;-51
2023/06/11 03:12:18;;;;;;;10.77;9.07;;;;;;;;;;5002092;28;20925;-50
2023/06/11 03:14:44;;;;;;;11.77;8.80;;;;;;;;;;5002910;28;20430;-50
2023/06/11 03:17:10;;;;;;;9.80;8.80;;;;;;;;;;4997352;28;20413;-50
2023/06/11 03:19:36;;;;;;;10.60;9.70;;;;;;;;;;5004238;28;20520;-50
2023/06/11 03:22:02;;;;;;;13.10;8.60;;;;;;;;;;5001223;28;20469;-51
2023/06/11 03:24:28;;;;;;;10.67;9.60;;;;;;;;;;5000996;28;20480;-50
2023/06/11 03:26:54;;;;;;;12.60;9.20;;;;;;;;;;5002673;28;20511;-50
2023/06/11 03:29:19;;;;;;;10.80;9.80;;;;;;;;;;4994799;28;20414;-50
2023/06/11 03:31:45;;;;;;;9.73;8.87;;;;;;;;;;5001365;28;20421;-50
2023/06/11 03:34:11;;;;;;;9.97;8.87;;;;;;;;;;5000729;28;20517;-50
2023/06/11 03:36:37;;;;;;;10.60;9.70;;;;;;;;;;5005839;28;20424;-50
2023/06/11 03:39:03;;;;;;;10.10;9.10;;;;;;;;;;4993104;28;20429;-50
2023/06/11 03:41:29;;;;;;;11.47;9.77;;;;;;;;;;5000475;28;20464;-50
2023/06/11 03:43:55;;;;;;;9.70;8.90;;;;;;;;;;5008500;28;20965;-49
2023/06/11 03:46:22;;;;;;;10.50;8.93;;;;;;;;;;5000687;28;20405;-49
2023/06/11 03:48:48;;;;;;;10.30;9.40;;;;;;;;;;5001849;28;20788;-50
2023/06/11 03:51:15;;;;;;;10.23;9.17;;;;;;;;;;5004340;28;20546;-49
2023/06/11 03:53:41;;;;;;;11.07;10.07;;;;;;;;;;5004017;28;20528;-50
2023/06/11 03:56:07;;;;;;;10.53;9.43;;;;;;;;;;4998255;28;21036;-50
2023/06/11 03:58:33;;;;;;;11.03;10.03;;;;;;;;;;4996991;28;20418;-50
2023/06/11 04:00:59;;;;;;;10.30;9.30;;;;;;;;;;5002825;28;20472;-50
2023/06/11 04:03:25;;;;;;;13.17;10.90;;;;;;;;;;5003042;28;20478;-50
2023/06/11 04:05:51;;;;;;;10.10;9.10;;;;;;;;;;5001895;28;20416;-50
2023/06/11 04:08:17;;;;;;;12.40;10.17;;;;;;;;;;5000969;28;20383;-49
2023/06/11 04:10:43;;;;;;;9.87;9.07;;;;;;;;;;5001579;28;20826;-50
2023/06/11 04:13:09;;;;;;;10.40;9.30;;;;;;;;;;4996812;28;20422;-48
2023/06/11 04:15:35;;;;;;;13.67;9.83;;;;;;;;;;5003687;28;20428;-48
2023/06/11 04:18:01;;;;;;;9.90;9.00;;;;;;;;;;5001118;28;20419;-51
2023/06/11 04:20:27;;;;;;;11.70;9.07;;;;;;;;;;5000804;28;20431;-50
2023/06/11 04:22:54;;;;;;;11.80;8.37;;;;;;;;;;5002235;28;20455;-50
2023/06/11 04:25:20;;;;;;;9.87;8.97;;;;;;;;;;5000056;28;20470;-50
2023/06/11 04:27:47;;;;;;;15.93;9.90;;;;;;;;;;5000735;28;20415;-51
2023/06/11 04:30:14;;;;;;;10.20;9.30;;;;;;;;;;4999911;28;20423;-48
2023/06/11 04:32:41;;;;;;;9.40;8.50;;;;;;;;;;5005668;28;20481;-51
2023/06/11 04:35:07;;;;;;;9.60;8.60;;;;;;;;;;4999661;28;20842;-50
2023/06/11 04:37:40;;;;;;;12.10;9.17;;;;;;;;;;4998975;28;20959;-48
2023/06/11 04:40:09;;;;;;;9.67;8.77;;;;;;;;;;4992761;28;20437;-50
2023/06/11 04:42:42;;;;;;;9.87;8.80;;;;;;;;;;5003847;28;20371;-49
2023/06/11 04:45:11;;;;;;;9.63;8.73;;;;;;;;;;5003826;28;20998;-48
2023/06/11 04:47:37;;;;;;;9.77;8.87;;;;;;;;;;5003819;28;20485;-50
2023/06/11 04:50:05;;;;;;;9.50;8.60;;;;;;;;;;5007569;28;20839;-50
2023/06/11 04:52:35;;;;;;;10.17;9.27;;;;;;;;;;5004773;28;20907;-50
2023/06/11 04:55:03;;;;;;;11.10;8.90;;;;;;;;;;4999570;28;20427;-50
2023/06/11 04:57:30;;;;;;;12.53;9.40;;;;;;;;;;5007047;28;20913;-50
2023/06/11 04:59:57;;;;;;;9.70;8.13;;;;;;;;;;5004147;28;20418;-50
2023/06/11 05:02:25;;;;;;;12.13;9.73;;;;;;;;;;5004902;28;20469;-48
2023/06/11 05:04:53;;;;;;;9.33;8.50;;;;;;;;;;5005062;28;20441;-48
2023/06/11 05:07:19;;;;;;;9.60;8.80;;;;;;;;;;5003792;28;20404;-50
2023/06/11 05:09:45;;;;;;;8.80;8.00;;;;;;;;;;5002748;28;20430;-50
2023/06/11 05:12:11;;;;;;;9.20;8.50;;;;;;;;;;5003450;28;20423;-50
2023/06/11 05:14:37;;;;;;;9.10;8.30;;;;;;;;;;5008506;28;20807;-50
2023/06/11 05:17:03;;;;;;;10.00;9.00;;;;;;;;;;5002602;28;20411;-50
2023/06/11 05:19:30;;;;;;;9.73;8.67;;;;;;;;;;5002021;28;20427;-50
2023/06/11 05:21:56;;;;;;;9.63;8.77;;;;;;;;;;5003797;28;20502;-51
2023/06/11 05:24:28;;;;;;;10.60;9.03;;;;;;;;;;5002904;28;20427;-51
2023/06/11 05:26:55;;;;;;;9.40;8.60;;;;;;;;;;5005289;28;20432;-51
2023/06/11 05:29:21;;;;;;;14.33;8.37;;;;;;;;;;5006151;28;20430;-51
2023/06/11 05:31:47;;;;;;;12.10;9.03;;;;;;;;;;5007130;28;20421;-49
2023/06/11 05:34:13;;;;;;;10.27;9.40;;;;;;;;;;5001777;28;20486;-48
2023/06/11 05:36:40;;;;;;;10.00;8.80;;;;;;;;;;4998944;28;20540;-49
2023/06/11 05:39:06;;;;;;;10.37;9.37;;;;;;;;;;5004555;28;20501;-48
2023/06/11 05:41:32;;;;;;;9.47;8.67;;;;;;;;;;5009589;28;20473;-49
2023/06/11 05:43:58;;;;;;;9.07;8.23;;;;;;;;;;5010700;28;20514;-50
2023/06/11 05:46:25;;;;;;;9.20;8.40;;;;;;;;;;5002613;28;20904;-50
2023/06/11 05:48:51;;;;;;;10.53;8.30;;;;;;;;;;5003743;28;20421;-49
2023/06/11 05:51:17;;;;;;;10.67;8.73;;;;;;;;;;5000398;28;20426;-50
2023/06/11 05:53:43;;;;;;;8.77;7.97;;;;;;;;;;5005213;28;20931;-50
2023/06/11 05:56:10;;;;;;;9.13;8.30;;;;;;;;;;5004170;28;20506;-51
2023/06/11 05:58:36;;;;;;;9.70;8.90;;;;;;;;;;5002326;28;20417;-51
2023/06/11 06:01:03;;;;;;;9.43;8.53;;;;;;;;;;5004523;28;20462;-50
2023/06/11 06:03:33;;;;;;;11.20;9.40;;;;;;;;;;4998613;28;20435;-51
2023/06/11 06:05:59;;;;;;;9.80;8.90;;;;;;;;;;4993888;28;20780;-50
2023/06/11 06:08:26;;;;;;;8.77;7.97;;;;;;;;;;5002311;28;20779;-50
2023/06/11 06:10:52;;;;;;;9.23;8.30;;;;;;;;;;5004757;28;20422;-49
2023/06/11 06:13:18;;;;;;;9.37;8.47;;;;;;;;;;4998814;28;20419;-49
2023/06/11 06:15:44;;;;;;;9.73;8.73;;;;;;;;;;5003510;28;20525;-51
2023/06/11 06:18:10;;;;;;;8.30;7.50;;;;;;;;;;5002964;28;20415;-50
2023/06/11 06:20:36;;;;;;;10.03;8.20;;;;;;;;;;5000860;28;20555;-51
2023/06/11 06:23:02;;;;;;;10.63;8.90;;;;;;;;;;5009853;28;20488;-50
2023/06/11 06:25:28;;;;;;;9.33;8.50;;;;;;;;;;5002072;28;20412;-50
2023/06/11 06:27:54;;;;;;;13.90;9.00;;;;;;;;;;5002028;28;20470;-49
2023/06/11 06:30:20;;;;;;;13.00;8.10;;;;;;;;;;5001715;28;20416;-49
2023/06/11 06:32:45;;;;;;;8.67;7.77;;;;;;;;;;5006708;28;20419;-49
2023/06/11 06:35:12;;;;;;;9.63;8.20;;;;;;;;;;5001469;28;20522;-50
2023/06/11 06:37:38;;;;;;;9.23;8.33;;;;;;;;;;4999177;28;20415;-50
2023/06/11 06:40:04;;;;;;;9.20;8.30;;;;;;;;;;5001872;28;20624;-50
2023/06/11 06:42:30;;;;;;;7.93;7.20;;;;;;;;;;5002281;28;20500;-50
2023/06/11 06:44:56;;;;;;;9.03;8.17;;;;;;;;;;5001267;28;20523;-51
2023/06/11 06:47:22;;;;;;;9.50;8.70;;;;;;;;;;5004370;28;20423;-50
2023/06/11 06:49:48;;;;;;;8.90;8.10;;;;;;;;;;5004873;28;20410;-51
2023/06/11 06:52:14;;;;;;;7.37;6.73;;;;;;;;;;5000252;28;20419;-51
2023/06/11 06:54:40;;;;;;;8.63;7.73;;;;;;;;;;4997023;28;20570;-50
2023/06/11 06:57:10;;;;;;;9.37;7.13;;;;;;;;;;5004762;28;20407;-51
2023/06/11 06:59:36;;;;;;;8.17;7.37;;;;;;;;;;5002035;28;21004;-51
2023/06/11 07:02:02;;;;;;;10.23;7.50;;;;;;;;;;5004005;28;20551;-51
2023/06/11 07:04:28;;;;;;;8.30;7.60;;;;;;;;;;5001785;28;20442;-49
2023/06/11 07:06:55;;;;;;;8.73;8.03;;;;;;;;;;5003563;28;20904;-51
2023/06/11 07:09:21;;;;;;;8.23;7.60;;;;;;;;;;4999269;28;20427;-50
2023/06/11 07:11:48;;;;;;;7.70;6.90;;;;;;;;;;4991869;28;20512;-49
2023/06/11 07:14:14;;;;;;;8.83;8.13;;;;;;;;;;5001921;28;20441;-50
2023/06/11 07:16:40;;;;;;;8.37;7.67;;;;;;;;;;4999817;28;20418;-50
2023/06/11 07:19:06;;;;;;;9.23;7.47;;;;;;;;;;5002894;28;20770;-48
2023/06/11 07:21:35;;;;;;;7.70;7.00;;;;;;;;;;5000809;28;20969;-50
2023/06/11 07:24:04;;;;;;;7.67;7.10;;;;;;;;;;5006390;28;20454;-48
2023/06/11 07:26:30;;;;;;;9.47;8.30;;;;;;;;;;5000782;28;20517;-49
2023/06/11 07:28:56;;;;;;;8.00;7.40;;;;;;;;;;5006140;28;20850;-48
2023/06/11 07:31:22;;;;;;;8.07;7.30;;;;;;;;;;5002395;28;20427;-48
2023/06/11 07:33:49;;;;;;;7.63;6.93;;;;;;;;;;4998285;28;20798;-49
2023/06/11 07:36:16;;;;;;;8.53;7.70;;;;;;;;;;5000189;28;20420;-49
2023/06/11 07:38:45;;;;;;;8.43;7.73;;;;;;;;;;5000857;28;20439;-50
2023/06/11 07:41:13;;;;;;;8.87;7.00;;;;;;;;;;5000450;28;21005;-48
2023/06/11 07:43:39;;;;;;;7.77;7.00;;;;;;;;;;5001379;28;20454;-49
2023/06/11 07:46:05;;;;;;;6.33;5.93;;;;;;;;;;5000261;28;20411;-51
2023/06/11 07:48:31;;;;;;;7.03;6.30;;;;;;;;;;5002157;28;20411;-50
2023/06/11 07:50:57;;;;;;;6.90;6.27;;;;;;;;;;4996517;28;20419;-50
2023/06/11 07:53:24;;;;;;;7.20;6.47;;;;;;;;;;5003714;28;20431;-50
2023/06/11 07:55:55;;;;;;;7.63;6.60;;;;;;;;;;5001528;28;20426;-50
2023/06/11 07:58:21;;;;;;;6.93;5.93;;;;;;;;;;5002538;28;20422;-49
2023/06/11 08:00:47;;;;;;;6.37;5.87;;;;;;;;;;4999798;28;21102;-49
2023/06/11 08:03:13;;;;;;;6.47;5.47;;;;;;;;;;5001777;28;20440;-49
2023/06/11 08:05:39;;;;;;;6.40;5.80;;;;;;;;;;5001529;28;20794;-48
2023/06/11 08:08:06;;;;;;;6.07;5.50;;;;;;;;;;5000132;28;20419;-47
2023/06/11 08:10:33;;;;;;;6.30;5.80;;;;;;;;;;5005718;28;20839;-48
2023/06/11 08:12:59;;;;;;;5.83;5.33;;;;;;;;;;5000273;28;20497;-48
2023/06/11 08:15:25;;;;;;;7.37;6.83;;;;;;;;;;5003898;28;20514;-49
2023/06/11 08:17:51;;;;;;;5.70;5.20;;;;;;;;;;5005632;28;20487;-48
2023/06/11 08:20:18;;;;;;;5.50;5.00;;;;;;;;;;5003981;28;20816;-49
2023/06/11 08:22:44;;;;;;;5.60;5.10;;;;;;;;;;5004672;28;20408;-50
2023/06/11 08:25:11;;;;;;;6.00;5.37;;;;;;;;;;5009773;28;20462;-50
2023/06/11 08:27:37;;;;;;;4.50;4.20;;;;;;;;;;5008673;28;20419;-49
2023/06/11 08:30:03;;;;;;;5.20;4.63;;;;;;;;;;5002479;28;20418;-50
2023/06/11 08:32:29;;;;;;;4.77;4.37;;;;;;;;;;5002304;28;20915;-49
2023/06/11 08:34:55;;;;;;;5.03;4.63;;;;;;;;;;5003853;28;20428;-50
2023/06/11 08:37:22;;;;;;;5.10;4.70;;;;;;;;;;5003972;28;20946;-52
2023/06/11 08:39:48;;;;;;;5.33;4.83;;;;;;;;;;5004404;28;20420;-51
2023/06/11 08:42:14;;;;;;;5.70;4.97;;;;;;;;;;5003262;28;20862;-50
2023/06/11 08:44:40;;;;;;;5.10;4.70;;;;;;;;;;5005723;28;20453;-52
2023/06/11 08:47:06;;;;;;;4.93;4.53;;;;;;;;;;5003244;28;20415;-51
2023/06/11 08:49:32;;;;;;;5.50;5.10;;;;;;;;;;5001196;28;20427;-51
2023/06/11 08:52:01;;;;;;;4.67;4.27;;;;;;;;;;5004413;28;20411;-51
2023/06/11 08:54:28;;;;;;;5.60;5.07;;;;;;;;;;5003282;28;20439;-51
2023/06/11 08:56:54;;;;;;;5.00;4.60;;;;;;;;;;5005403;28;20423;-51
2023/06/11 08:59:20;;;;;;;4.90;4.30;;;;;;;;;;5006940;28;20503;-52
2023/06/11 09:01:52;;;;;;;6.17;5.13;;;;;;;;;;5007468;28;20501;-51
2023/06/11 09:04:19;;;;;;;4.73;4.33;;;;;;;;;;5003283;28;20446;-51
2023/06/11 09:06:49;;;;;;;5.43;4.93;;;;;;;;;;4999371;28;20447;-49
2023/06/11 09:09:15;;;;;;;5.00;4.60;;;;;;;;;;5006349;28;20414;-49
2023/06/11 09:11:41;;;;;;;6.07;5.27;;;;;;;;;;4999872;28;20423;-50
2023/06/11 09:14:07;;;;;;;5.43;4.93;;;;;;;;;;5006349;28;20437;-49
2023/06/11 09:16:40;;;;;;;5.37;4.87;;;;;;;;;;5003482;28;20454;-49
2023/06/11 09:19:06;;;;;;;5.57;5.07;;;;;;;;;;5000444;28;20458;-49
2023/06/11 09:21:32;;;;;;;5.70;5.00;;;;;;;;;;5002963;28;20490;-51
2023/06/11 09:24:08;;;;;;;5.50;5.00;;;;;;;;;;5003351;28;20464;-50
2023/06/11 09:26:34;;;;;;;5.50;5.10;;;;;;;;;;5008130;28;20751;-49
2023/06/11 09:29:00;;;;;;;6.07;5.10;;;;;;;;;;5002373;28;20415;-49
2023/06/11 09:31:26;;;;;;;5.80;5.17;;;;;;;;;;5002310;28;20447;-52
2023/06/11 09:33:53;;;;;;;5.13;4.73;;;;;;;;;;5003660;28;20471;-51
2023/06/11 09:36:19;;;;;;;5.30;4.90;;;;;;;;;;5002745;28;20408;-51
2023/06/11 09:38:48;;;;;;;4.87;4.47;;;;;;;;;;5003469;28;20419;-48
2023/06/11 09:41:14;;;;;;;5.07;4.60;;;;;;;;;;4994596;28;20983;-52
2023/06/11 09:43:40;;;;;;;5.47;5.07;;;;;;;;;;4994580;28;20444;-49
2023/06/11 09:46:08;;;;;;;4.93;4.50;;;;;;;;;;4987992;28;20452;-50
2023/06/11 09:48:34;;;;;;;5.70;5.00;;;;;;;;;;4994583;28;20411;-50
2023/06/11 09:51:02;;;;;;;5.43;4.83;;;;;;;;;;4994545;28;20424;-50
2023/06/11 09:53:29;;;;;;;5.70;5.17;;;;;;;;;;4994274;28;20834;-47
2023/06/11 09:55:56;;;;;;;5.17;4.67;;;;;;;;;;4994431;28;20935;-47
2023/06/11 09:58:23;;;;;;;5.27;4.90;;;;;;;;;;4994210;28;20850;-48
2023/06/11 10:00:58;;;;;;;7.90;4.50;;;;;;;;;;4993900;28;20463;-47
2023/06/11 10:03:24;;;;;;;5.30;4.90;;;;;;;;;;4994182;28;20493;-47
2023/06/11 10:05:50;;;;;;;4.73;4.43;;;;;;;;;;4994180;28;20470;-48
2023/06/11 10:08:21;;;;;;;5.33;4.93;;;;;;;;;;4987035;28;20892;-48
2023/06/11 10:10:49;;;;;;;6.03;5.10;;;;;;;;;;4979069;28;20444;-47
2023/06/11 10:13:29;;;;;;;4.90;4.50;;;;;;;;;;4992110;28;20522;-47
2023/06/11 10:15:55;;;;;;;5.13;4.73;;;;;;;;;;4992140;28;20886;-50
2023/06/11 10:18:26;;;;;;;4.90;4.50;;;;;;;;;;4992182;28;20494;-49
2023/06/11 10:20:56;;;;;;;5.17;4.60;;;;;;;;;;4991591;28;21060;-47
2023/06/11 10:23:22;;;;;;;5.00;4.60;;;;;;;;;;4993495;28;20952;-47
2023/06/11 10:25:53;;;;;;;7.53;5.23;;;;;;;;;;4993754;28;20791;-47
2023/06/11 10:28:19;;;;;;;5.83;5.23;;;;;;;;;;4993617;28;20584;-47
2023/06/11 10:30:52;;;;;;;5.13;4.70;;;;;;;;;;4993322;28;20412;-47
2023/06/11 10:33:18;;;;;;;5.67;5.07;;;;;;;;;;4993544;28;20416;-48
2023/06/11 10:35:47;;;;;;;5.40;4.97;;;;;;;;;;4992818;28;20404;-49
2023/06/11 10:38:15;;;;;;;5.23;4.77;;;;;;;;;;4993612;28;20770;-50
2023/06/11 10:40:41;;;;;;;5.43;5.03;;;;;;;;;;4993122;28;20456;-49
2023/06/11 10:43:17;;;;;;;5.77;4.87;;;;;;;;;;4996865;28;20498;-50
2023/06/11 10:45:43;;;;;;;5.53;5.00;;;;;;;;;;5002864;28;20422;-47
2023/06/11 10:48:11;;;;;;;5.30;4.70;;;;;;;;;;5000682;28;20447;-50
2023/06/11 10:50:37;;;;;;;5.70;5.30;;;;;;;;;;5007091;28;20423;-47
2023/06/11 10:53:08;;;;;;;5.47;4.97;;;;;;;;;;5000865;28;20810;-47
2023/06/11 10:55:35;;;;;;;5.23;4.83;;;;;;;;;;5000436;28;20430;-47
2023/06/11 10:58:02;;;;;;;6.37;5.33;;;;;;;;;;5002640;28;20408;-47
2023/06/11 11:00:32;;;;;;;6.37;5.77;;;;;;;;;;5000938;28;20944;-47
2023/06/11 11:02:58;;;;;;;5.73;5.43;;;;;;;;;;5003775;28;20444;-46
2023/06/11 11:05:25;;;;;;;6.10;5.57;;;;;;;;;;5004988;28;20511;-48
2023/06/11 11:07:53;;;;;;;6.03;5.50;;;;;;;;;;5005556;28;20426;-47
2023/06/11 11:10:23;;;;;;;6.70;5.73;;;;;;;;;;5001219;28;20447;-48
2023/06/11 11:12:49;;;;;;;5.80;5.40;;;;;;;;;;4997487;28;20448;-47
2023/06/11 11:15:15;;;;;;;5.83;5.33;;;;;;;;;;5007659;28;20857;-46
2023/06/11 11:17:42;;;;;;;6.47;6.07;;;;;;;;;;5002432;28;20411;-46
2023/06/11 11:20:09;;;;;;;5.47;5.07;;;;;;;;;;4998793;28;20547;-47
2023/06/11 11:22:35;;;;;;;6.30;5.80;;;;;;;;;;4999772;28;20418;-46
2023/06/11 11:25:02;;;;;;;5.90;5.40;;;;;;;;;;5000023;28;20444;-47
2023/06/11 11:27:28;;;;;;;6.03;5.40;;;;;;;;;;5000035;28;20450;-51
2023/06/11 11:29:57;;;;;;;6.00;5.50;;;;;;;;;;5001639;28;20922;-47
2023/06/11 11:32:24;;;;;;;6.10;5.60;;;;;;;;;;5004950;28;20415;-49
2023/06/11 11:34:50;;;;;;;6.00;5.53;;;;;;;;;;5000239;28;20436;-47
2023/06/11 11:37:16;;;;;;;6.60;5.63;;;;;;;;;;5002096;28;20415;-46
2023/06/11 11:39:42;;;;;;;6.43;5.83;;;;;;;;;;5001076;28;20409;-49
2023/06/11 11:42:09;;;;;;;6.33;5.40;;;;;;;;;;5000396;28;20533;-48
2023/06/11 11:44:39;;;;;;;6.13;5.57;;;;;;;;;;4998702;28;20503;-48
2023/06/11 11:47:08;;;;;;;5.97;5.57;;;;;;;;;;4994551;28;20416;-48
2023/06/11 11:49:34;;;;;;;6.20;5.60;;;;;;;;;;5004366;28;20419;-48
2023/06/11 11:52:00;;;;;;;5.63;5.13;;;;;;;;;;4998797;28;20430;-48
2023/06/11 11:54:27;;;;;;;6.73;5.80;;;;;;;;;;4998913;28;20464;-47
2023/06/11 11:57:07;;;;;;;5.83;5.30;;;;;;;;;;5002189;28;20466;-45
2023/06/11 11:59:40;;;;;;;6.63;6.03;;;;;;;;;;5002989;28;20524;-45
2023/06/11 12:02:07;;;;;;;5.77;5.37;;;;;;;;;;4992547;28;20819;-45
2023/06/11 12:04:46;;;;;;;7.23;5.67;;;;;;;;;;5000137;28;20436;-46
2023/06/11 12:07:16;;;;;;;7.73;5.60;;;;;;;;;;4998005;28;20433;-46
2023/06/11 12:09:42;;;;;;;5.23;4.73;;;;;;;;;;5001719;28;20414;-45
2023/06/11 12:12:09;;;;;;;5.33;4.93;;;;;;;;;;4995943;28;20465;-45
2023/06/11 12:14:36;;;;;;;5.70;5.20;;;;;;;;;;5001667;28;20473;-46
2023/06/11 12:17:02;;;;;;;4.77;4.37;;;;;;;;;;4990725;28;20672;-46
2023/06/11 12:19:29;;;;;;;5.30;4.80;;;;;;;;;;4992180;28;20415;-46
2023/06/11 12:21:56;;;;;;;5.37;4.67;;;;;;;;;;4992103;28;20486;-46
2023/06/11 12:24:22;;;;;;;4.93;4.53;;;;;;;;;;4992161;28;20497;-46
2023/06/11 12:26:49;;;;;;;5.60;5.10;;;;;;;;;;4991785;28;20496;-45
2023/06/11 12:29:15;;;;;;;5.17;4.70;;;;;;;;;;4977281;28;20825;-45
2023/06/11 12:31:41;;;;;;;5.20;4.87;;;;;;;;;;4984001;28;20423;-46
2023/06/11 12:34:10;;;;;;;5.67;5.27;;;;;;;;;;4991956;28;20974;-45
2023/06/11 12:36:36;;;;;;;6.40;5.90;;;;;;;;;;4991793;28;20915;-45
2023/06/11 12:39:04;;;;;;;6.77;5.07;;;;;;;;;;4991944;28;20427;-45
2023/06/11 12:41:31;;;;;;;5.40;4.90;;;;;;;;;;4991574;28;20460;-45
2023/06/11 12:43:57;;;;;;;5.77;5.20;;;;;;;;;;4992709;28;20447;-45
2023/06/11 12:46:23;;;;;;;5.20;4.90;;;;;;;;;;4990963;28;20434;-45
2023/06/11 12:48:49;;;;;;;5.07;4.67;;;;;;;;;;4991955;28;20416;-45
2023/06/11 12:51:15;;;;;;;4.80;4.50;;;;;;;;;;4991570;28;20419;-46
2023/06/11 12:53:41;;;;;;;5.07;4.67;;;;;;;;;;4992075;28;20444;-46
2023/06/11 12:56:07;;;;;;;5.73;5.27;;;;;;;;;;4991500;28;20428;-45
2023/06/11 12:58:33;;;;;;;4.83;4.50;;;;;;;;;;4992752;28;20180;-45
2023/06/11 13:00:59;;;;;;;6.10;4.97;;;;;;;;;;4995212;28;20212;-45
2023/06/11 13:03:25;;;;;;;6.63;4.97;;;;;;;;;;4995255;28;20494;-46
2023/06/11 13:05:51;;;;;;;4.90;4.40;;;;;;;;;;4995247;28;20779;-45
2023/06/11 13:08:17;;;;;;;5.30;4.90;;;;;;;;;;4995228;28;20443;-45
2023/06/11 13:10:44;;;;;;;5.50;5.10;;;;;;;;;;4994844;28;20588;-45
2023/06/11 13:13:10;;;;;;;5.77;4.93;;;;;;;;;;4993854;28;20782;-46
2023/06/11 13:15:36;;;;;;;5.47;4.97;;;;;;;;;;4994246;28;20438;-47
2023/06/11 13:18:03;;;;;;;5.10;4.70;;;;;;;;;;4995126;28;20252;-46
2023/06/11 13:20:29;;;;;;;6.77;4.50;;;;;;;;;;4995452;28;20465;-46
2023/06/11 13:22:55;;;;;;;5.43;4.90;;;;;;;;;;4995347;28;20416;-45
2023/06/11 13:25:21;;;;;;;5.00;4.60;;;;;;;;;;4994968;28;20587;-45
2023/06/11 13:27:47;;;;;;;4.70;4.30;;;;;;;;;;4983434;28;20239;-46
2023/06/11 13:30:13;;;;;;;5.10;4.80;;;;;;;;;;4984559;28;20200;-46
2023/06/11 13:32:39;;;;;;;5.70;5.20;;;;;;;;;;4995085;28;20193;-46
2023/06/11 13:35:05;;;;;;;5.07;4.73;;;;;;;;;;4994847;28;20522;-45
2023/06/11 13:37:32;;;;;;;5.20;4.43;;;;;;;;;;4994660;28;20404;-45
2023/06/11 13:39:58;;;;;;;4.60;4.30;;;;;;;;;;4994358;28;20408;-45
2023/06/11 13:42:25;;;;;;;5.70;5.20;;;;;;;;;;4997804;28;20553;-46
2023/06/11 13:44:51;;;;;;;5.33;5.03;;;;;;;;;;4999205;28;20447;-46
2023/06/11 13:47:17;;;;;;;4.87;4.57;;;;;;;;;;4993553;28;20494;-46
2023/06/11 13:49:43;;;;;;;5.30;4.60;;;;;;;;;;4994577;28;20181;-45
2023/06/11 13:52:09;;;;;;;8.83;4.80;;;;;;;;;;4994626;28;20268;-45
2023/06/11 13:54:34;;;;;;;5.47;4.67;;;;;;;;;;4994463;28;20431;-45
2023/06/11 13:57:01;;;;;;;4.87;4.60;;;;;;;;;;4994545;28;20945;-46
2023/06/11 13:59:27;;;;;;;5.30;4.90;;;;;;;;;;4994419;28;20181;-45
2023/06/11 14:01:54;;;;;;;5.30;4.90;;;;;;;;;;4994169;28;20459;-45
2023/06/11 14:04:20;;;;;;;4.17;3.93;;;;;;;;;;4994216;28;20193;-45
2023/06/11 14:06:46;;;;;;;5.60;5.20;;;;;;;;;;4994128;28;20511;-46
2023/06/11 14:09:12;;;;;;;5.53;5.13;;;;;;;;;;4993750;28;20420;-45
2023/06/11 14:11:38;;;;;;;5.23;4.73;;;;;;;;;;4993486;28;21031;-45
2023/06/11 14:14:04;;;;;;;4.93;4.63;;;;;;;;;;4992063;28;20530;-46
2023/06/11 14:16:31;;;;;;;5.87;5.23;;;;;;;;;;4994130;28;20540;-46
2023/06/11 14:18:57;;;;;;;5.60;5.20;;;;;;;;;;4993445;28;20475;-45
2023/06/11 14:21:24;;;;;;;5.10;4.80;;;;;;;;;;4993589;28;20464;-45
2023/06/11 14:23:50;;;;;;;5.23;4.50;;;;;;;;;;4993601;28;20476;-45
2023/06/11 14:26:16;;;;;;;5.07;4.70;;;;;;;;;;4993880;28;20466;-45
2023/06/11 14:28:42;;;;;;;5.10;4.70;;;;;;;;;;4993753;28;20188;-45
2023/06/11 14:31:08;;;;;;;5.87;5.00;;;;;;;;;;4993549;28;20412;-45
2023/06/11 14:33:35;;;;;;;5.20;4.90;;;;;;;;;;4993116;28;20463;-45
2023/06/11 14:36:04;;;;;;;5.50;5.10;;;;;;;;;;4973869;28;20401;-46
2023/06/11 14:38:31;;;;;;;7.10;5.83;;;;;;;;;;4991953;28;20181;-46